sensor_id;sensor_type;location;lat;lon;timestamp;temperature;humidity
13928;DHT22;7036;50.834;4.718;2023-01-19T00:00:45;16.70;49.00
13928;DHT22;7036;50.834;4.718;2023-01-19T00:03:13;16.70;49.00
13928;DHT22;7036;50.834;4.718;2023-01-19T00:05:42;16.70;49.00
13928;DHT22;7036;50.834;4.718;2023-01-19T00:08:10;16.70;49.10
13928;DHT22;7036;50.834;4.718;2023-01-19T00:10:44;16.70;49.40
13928;DHT22;7036;50.834;4.718;2023-01-19T00:13:11;16.70;49.00
13928;DHT22;7036;50.834;4.718;2023-01-19T00:15:38;16.70;48.90
13928;DHT22;7036;50.834;4.718;2023-01-19T00:18:07;16.70;48.90
13928;DHT22;7036;50.834;4.718;2023-01-19T00:20:33;16.70;48.90
13928;DHT22;7036;50.834;4.718;2023-01-19T00:23:03;16.70;48.90
13928;DHT22;7036;50.834;4.718;2023-01-19T00:25:31;16.70;49.00
13928;DHT22;7036;50.834;4.718;2023-01-19T00:27:59;16.70;49.00
13928;DHT22;7036;50.834;4.718;2023-01-19T00:30:26;16.70;48.90
13928;DHT22;7036;50.834;4.718;2023-01-19T00:32:54;16.60;49.00
13928;DHT22;7036;50.834;4.718;2023-01-19T00:35:22;16.70;49.00
13928;DHT22;7036;50.834;4.718;2023-01-19T00:37:50;16.60;48.90
13928;DHT22;7036;50.834;4.718;2023-01-19T00:40:18;16.60;48.90
13928;DHT22;7036;50.834;4.718;2023-01-19T00:42:46;16.60;48.90
13928;DHT22;7036;50.834;4.718;2023-01-19T00:45:17;16.60;48.90
13928;DHT22;7036;50.834;4.718;2023-01-19T00:47:46;16.60;48.90
13928;DHT22;7036;50.834;4.718;2023-01-19T00:50:15;16.60;49.00
13928;DHT22;7036;50.834;4.718;2023-01-19T00:52:43;16.60;49.00
13928;DHT22;7036;50.834;4.718;2023-01-19T00:55:11;16.60;49.00
13928;DHT22;7036;50.834;4.718;2023-01-19T00:57:39;16.60;49.00
13928;DHT22;7036;50.834;4.718;2023-01-19T01:00:07;16.60;49.00
13928;DHT22;7036;50.834;4.718;2023-01-19T01:02:34;16.60;49.00
13928;DHT22;7036;50.834;4.718;2023-01-19T01:05:02;16.60;49.00
13928;DHT22;7036;50.834;4.718;2023-01-19T01:07:30;16.60;49.00
13928;DHT22;7036;50.834;4.718;2023-01-19T01:09:57;16.60;48.90
13928;DHT22;7036;50.834;4.718;2023-01-19T01:12:25;16.60;48.90
13928;DHT22;7036;50.834;4.718;2023-01-19T01:14:52;16.60;48.90
13928;DHT22;7036;50.834;4.718;2023-01-19T01:17:20;16.60;49.00
13928;DHT22;7036;50.834;4.718;2023-01-19T01:19:48;16.60;49.00
13928;DHT22;7036;50.834;4.718;2023-01-19T01:22:16;16.60;48.90
13928;DHT22;7036;50.834;4.718;2023-01-19T01:24:44;16.60;48.90
13928;DHT22;7036;50.834;4.718;2023-01-19T01:27:12;16.60;48.90
13928;DHT22;7036;50.834;4.718;2023-01-19T01:29:40;16.60;48.90
13928;DHT22;7036;50.834;4.718;2023-01-19T01:32:08;16.60;48.90
13928;DHT22;7036;50.834;4.718;2023-01-19T01:34:36;16.60;48.90
13928;DHT22;7036;50.834;4.718;2023-01-19T01:37:04;16.60;48.90
13928;DHT22;7036;50.834;4.718;2023-01-19T01:39:34;16.60;48.90
13928;DHT22;7036;50.834;4.718;2023-01-19T01:42:00;16.60;48.90
13928;DHT22;7036;50.834;4.718;2023-01-19T01:44:54;16.60;48.90
13928;DHT22;7036;50.834;4.718;2023-01-19T01:47:22;16.60;48.90
13928;DHT22;7036;50.834;4.718;2023-01-19T01:49:47;16.60;48.80
13928;DHT22;7036;50.834;4.718;2023-01-19T01:52:14;16.60;48.80
13928;DHT22;7036;50.834;4.718;2023-01-19T01:54:42;16.60;48.90
13928;DHT22;7036;50.834;4.718;2023-01-19T01:57:10;16.60;48.80
13928;DHT22;7036;50.834;4.718;2023-01-19T01:59:42;16.60;48.90
13928;DHT22;7036;50.834;4.718;2023-01-19T02:02:11;16.50;48.70
13928;DHT22;7036;50.834;4.718;2023-01-19T02:04:59;16.50;48.70
13928;DHT22;7036;50.834;4.718;2023-01-19T02:10:34;16.50;48.70
13928;DHT22;7036;50.834;4.718;2023-01-19T02:13:20;16.50;48.70
13928;DHT22;7036;50.834;4.718;2023-01-19T02:15:47;16.50;48.70
13928;DHT22;7036;50.834;4.718;2023-01-19T02:18:14;16.50;48.70
13928;DHT22;7036;50.834;4.718;2023-01-19T02:20:45;16.50;48.70
13928;DHT22;7036;50.834;4.718;2023-01-19T02:23:12;16.50;48.60
13928;DHT22;7036;50.834;4.718;2023-01-19T02:25:37;16.50;48.70
13928;DHT22;7036;50.834;4.718;2023-01-19T02:28:05;16.50;48.70
13928;DHT22;7036;50.834;4.718;2023-01-19T02:30:33;16.50;48.60
13928;DHT22;7036;50.834;4.718;2023-01-19T02:33:01;16.50;48.70
13928;DHT22;7036;50.834;4.718;2023-01-19T02:35:29;16.50;48.70
13928;DHT22;7036;50.834;4.718;2023-01-19T02:37:56;16.50;48.70
13928;DHT22;7036;50.834;4.718;2023-01-19T02:40:24;16.50;48.70
13928;DHT22;7036;50.834;4.718;2023-01-19T02:42:52;16.50;48.60
13928;DHT22;7036;50.834;4.718;2023-01-19T02:45:21;16.50;48.60
13928;DHT22;7036;50.834;4.718;2023-01-19T02:47:49;16.50;48.70
13928;DHT22;7036;50.834;4.718;2023-01-19T02:53:14;16.50;48.60
13928;DHT22;7036;50.834;4.718;2023-01-19T02:55:33;16.50;48.60
13928;DHT22;7036;50.834;4.718;2023-01-19T02:58:19;16.50;48.70
13928;DHT22;7036;50.834;4.718;2023-01-19T03:01:06;16.50;48.80
13928;DHT22;7036;50.834;4.718;2023-01-19T03:03:41;16.50;48.60
13928;DHT22;7036;50.834;4.718;2023-01-19T03:06:11;16.50;48.60
13928;DHT22;7036;50.834;4.718;2023-01-19T03:08:50;16.50;48.60
13928;DHT22;7036;50.834;4.718;2023-01-19T03:11:14;16.50;48.60
13928;DHT22;7036;50.834;4.718;2023-01-19T03:13:57;16.50;49.40
13928;DHT22;7036;50.834;4.718;2023-01-19T03:16:22;16.50;48.50
13928;DHT22;7036;50.834;4.718;2023-01-19T03:18:54;16.50;48.50
13928;DHT22;7036;50.834;4.718;2023-01-19T03:21:21;16.50;48.60
13928;DHT22;7036;50.834;4.718;2023-01-19T03:23:48;16.40;48.60
13928;DHT22;7036;50.834;4.718;2023-01-19T03:26:20;16.40;48.60
13928;DHT22;7036;50.834;4.718;2023-01-19T03:28:45;16.40;48.40
13928;DHT22;7036;50.834;4.718;2023-01-19T03:31:18;16.50;48.50
13928;DHT22;7036;50.834;4.718;2023-01-19T03:33:43;16.40;48.40
13928;DHT22;7036;50.834;4.718;2023-01-19T03:36:25;16.40;48.50
13928;DHT22;7036;50.834;4.718;2023-01-19T03:38:39;16.40;48.40
13928;DHT22;7036;50.834;4.718;2023-01-19T03:41:09;16.40;48.50
13928;DHT22;7036;50.834;4.718;2023-01-19T03:43:35;16.40;48.50
13928;DHT22;7036;50.834;4.718;2023-01-19T03:46:03;16.40;48.50
13928;DHT22;7036;50.834;4.718;2023-01-19T03:48:31;16.40;48.50
13928;DHT22;7036;50.834;4.718;2023-01-19T03:51:05;16.40;48.50
13928;DHT22;7036;50.834;4.718;2023-01-19T03:53:32;16.40;48.40
13928;DHT22;7036;50.834;4.718;2023-01-19T03:56:00;16.40;48.50
13928;DHT22;7036;50.834;4.718;2023-01-19T03:58:28;16.40;48.50
13928;DHT22;7036;50.834;4.718;2023-01-19T04:00:56;16.40;48.40
13928;DHT22;7036;50.834;4.718;2023-01-19T04:03:22;16.40;48.40
13928;DHT22;7036;50.834;4.718;2023-01-19T04:05:50;16.40;48.50
13928;DHT22;7036;50.834;4.718;2023-01-19T04:08:18;16.40;48.50
13928;DHT22;7036;50.834;4.718;2023-01-19T04:10:47;16.40;48.50
13928;DHT22;7036;50.834;4.718;2023-01-19T04:13:14;16.40;48.40
13928;DHT22;7036;50.834;4.718;2023-01-19T04:15:41;16.40;48.40
13928;DHT22;7036;50.834;4.718;2023-01-19T04:18:09;16.40;48.50
13928;DHT22;7036;50.834;4.718;2023-01-19T04:20:37;16.40;48.50
13928;DHT22;7036;50.834;4.718;2023-01-19T04:23:05;16.40;48.50
13928;DHT22;7036;50.834;4.718;2023-01-19T04:25:33;16.30;48.30
13928;DHT22;7036;50.834;4.718;2023-01-19T04:28:00;16.40;48.50
13928;DHT22;7036;50.834;4.718;2023-01-19T04:30:28;16.40;48.40
13928;DHT22;7036;50.834;4.718;2023-01-19T04:32:57;16.40;48.50
13928;DHT22;7036;50.834;4.718;2023-01-19T04:35:23;16.30;48.30
13928;DHT22;7036;50.834;4.718;2023-01-19T04:37:51;16.40;48.50
13928;DHT22;7036;50.834;4.718;2023-01-19T04:40:18;16.40;48.40
13928;DHT22;7036;50.834;4.718;2023-01-19T04:42:46;16.40;48.50
13928;DHT22;7036;50.834;4.718;2023-01-19T04:45:14;16.40;48.50
13928;DHT22;7036;50.834;4.718;2023-01-19T04:47:42;16.40;48.50
13928;DHT22;7036;50.834;4.718;2023-01-19T04:50:10;16.40;48.50
13928;DHT22;7036;50.834;4.718;2023-01-19T04:52:38;16.40;48.50
13928;DHT22;7036;50.834;4.718;2023-01-19T04:55:06;16.40;48.50
13928;DHT22;7036;50.834;4.718;2023-01-19T04:57:34;16.40;48.50
13928;DHT22;7036;50.834;4.718;2023-01-19T05:00:00;16.40;48.40
13928;DHT22;7036;50.834;4.718;2023-01-19T05:02:28;16.40;48.50
13928;DHT22;7036;50.834;4.718;2023-01-19T05:04:56;16.40;48.50
13928;DHT22;7036;50.834;4.718;2023-01-19T05:07:24;16.30;48.50
13928;DHT22;7036;50.834;4.718;2023-01-19T05:09:51;16.40;48.40
13928;DHT22;7036;50.834;4.718;2023-01-19T05:12:19;16.30;48.50
13928;DHT22;7036;50.834;4.718;2023-01-19T05:14:47;16.30;48.50
13928;DHT22;7036;50.834;4.718;2023-01-19T05:17:14;16.30;48.30
13928;DHT22;7036;50.834;4.718;2023-01-19T05:19:42;16.30;48.40
13928;DHT22;7036;50.834;4.718;2023-01-19T05:22:10;16.40;48.50
13928;DHT22;7036;50.834;4.718;2023-01-19T05:24:38;16.30;48.40
13928;DHT22;7036;50.834;4.718;2023-01-19T05:27:07;16.30;48.40
13928;DHT22;7036;50.834;4.718;2023-01-19T05:29:34;16.30;48.30
13928;DHT22;7036;50.834;4.718;2023-01-19T05:32:02;16.30;48.40
13928;DHT22;7036;50.834;4.718;2023-01-19T05:34:30;16.30;48.40
13928;DHT22;7036;50.834;4.718;2023-01-19T05:36:58;16.30;48.40
13928;DHT22;7036;50.834;4.718;2023-01-19T05:39:26;16.30;48.40
13928;DHT22;7036;50.834;4.718;2023-01-19T05:41:54;16.30;48.40
13928;DHT22;7036;50.834;4.718;2023-01-19T05:44:22;16.30;48.50
13928;DHT22;7036;50.834;4.718;2023-01-19T05:46:50;16.30;48.40
13928;DHT22;7036;50.834;4.718;2023-01-19T05:49:18;16.30;48.40
13928;DHT22;7036;50.834;4.718;2023-01-19T05:51:46;16.30;48.40
13928;DHT22;7036;50.834;4.718;2023-01-19T05:54:13;16.30;48.30
13928;DHT22;7036;50.834;4.718;2023-01-19T05:56:40;16.30;48.30
13928;DHT22;7036;50.834;4.718;2023-01-19T05:59:08;16.30;48.40
13928;DHT22;7036;50.834;4.718;2023-01-19T06:01:35;16.30;48.30
13928;DHT22;7036;50.834;4.718;2023-01-19T06:04:04;16.30;48.40
13928;DHT22;7036;50.834;4.718;2023-01-19T06:06:31;16.30;48.40
13928;DHT22;7036;50.834;4.718;2023-01-19T06:08:59;16.30;48.40
13928;DHT22;7036;50.834;4.718;2023-01-19T06:11:27;16.30;48.40
13928;DHT22;7036;50.834;4.718;2023-01-19T06:13:55;16.30;48.40
13928;DHT22;7036;50.834;4.718;2023-01-19T06:16:22;16.30;48.30
13928;DHT22;7036;50.834;4.718;2023-01-19T06:18:50;16.30;48.40
13928;DHT22;7036;50.834;4.718;2023-01-19T06:21:18;16.30;48.40
13928;DHT22;7036;50.834;4.718;2023-01-19T06:23:46;16.30;48.40
13928;DHT22;7036;50.834;4.718;2023-01-19T06:26:14;16.30;48.40
13928;DHT22;7036;50.834;4.718;2023-01-19T06:28:42;16.30;48.40
13928;DHT22;7036;50.834;4.718;2023-01-19T06:31:09;16.30;48.20
13928;DHT22;7036;50.834;4.718;2023-01-19T06:33:37;16.30;48.40
13928;DHT22;7036;50.834;4.718;2023-01-19T06:36:06;16.30;48.40
13928;DHT22;7036;50.834;4.718;2023-01-19T06:38:34;16.30;48.40
13928;DHT22;7036;50.834;4.718;2023-01-19T06:41:01;16.30;48.40
13928;DHT22;7036;50.834;4.718;2023-01-19T06:43:30;16.30;48.40
13928;DHT22;7036;50.834;4.718;2023-01-19T06:45:57;16.30;48.40
13928;DHT22;7036;50.834;4.718;2023-01-19T06:48:25;16.20;48.30
13928;DHT22;7036;50.834;4.718;2023-01-19T06:50:53;16.20;48.30
13928;DHT22;7036;50.834;4.718;2023-01-19T06:53:20;16.20;48.20
13928;DHT22;7036;50.834;4.718;2023-01-19T06:55:48;16.20;48.30
13928;DHT22;7036;50.834;4.718;2023-01-19T06:58:16;16.20;48.30
13928;DHT22;7036;50.834;4.718;2023-01-19T07:00:44;16.20;48.20
13928;DHT22;7036;50.834;4.718;2023-01-19T07:03:18;16.20;48.30
13928;DHT22;7036;50.834;4.718;2023-01-19T07:05:39;16.20;48.20
13928;DHT22;7036;50.834;4.718;2023-01-19T07:08:06;16.20;48.20
13928;DHT22;7036;50.834;4.718;2023-01-19T07:10:34;16.20;48.20
13928;DHT22;7036;50.834;4.718;2023-01-19T07:13:01;16.20;48.20
13928;DHT22;7036;50.834;4.718;2023-01-19T07:15:29;16.20;48.20
13928;DHT22;7036;50.834;4.718;2023-01-19T07:17:57;16.20;48.10
13928;DHT22;7036;50.834;4.718;2023-01-19T07:20:24;16.20;48.20
13928;DHT22;7036;50.834;4.718;2023-01-19T07:22:55;16.20;48.20
13928;DHT22;7036;50.834;4.718;2023-01-19T07:25:21;16.20;48.20
13928;DHT22;7036;50.834;4.718;2023-01-19T07:27:49;16.20;48.20
13928;DHT22;7036;50.834;4.718;2023-01-19T07:30:16;16.20;48.20
13928;DHT22;7036;50.834;4.718;2023-01-19T07:32:44;16.20;48.20
13928;DHT22;7036;50.834;4.718;2023-01-19T07:35:12;16.20;48.20
13928;DHT22;7036;50.834;4.718;2023-01-19T07:37:40;16.20;48.10
13928;DHT22;7036;50.834;4.718;2023-01-19T07:40:07;16.20;48.20
13928;DHT22;7036;50.834;4.718;2023-01-19T07:42:35;16.20;48.20
13928;DHT22;7036;50.834;4.718;2023-01-19T07:45:03;16.20;48.20
13928;DHT22;7036;50.834;4.718;2023-01-19T07:47:31;16.20;48.20
13928;DHT22;7036;50.834;4.718;2023-01-19T07:49:59;16.20;48.20
13928;DHT22;7036;50.834;4.718;2023-01-19T07:52:27;16.20;48.20
13928;DHT22;7036;50.834;4.718;2023-01-19T07:54:55;16.20;48.50
13928;DHT22;7036;50.834;4.718;2023-01-19T07:57:23;16.20;48.20
13928;DHT22;7036;50.834;4.718;2023-01-19T07:59:51;16.20;48.20
13928;DHT22;7036;50.834;4.718;2023-01-19T08:02:18;16.20;48.20
13928;DHT22;7036;50.834;4.718;2023-01-19T08:04:47;16.20;48.20
13928;DHT22;7036;50.834;4.718;2023-01-19T08:07:14;16.20;48.20
13928;DHT22;7036;50.834;4.718;2023-01-19T08:09:42;16.20;48.20
13928;DHT22;7036;50.834;4.718;2023-01-19T08:12:10;16.20;48.20
13928;DHT22;7036;50.834;4.718;2023-01-19T08:14:38;16.20;48.20
13928;DHT22;7036;50.834;4.718;2023-01-19T08:17:09;16.20;48.20
13928;DHT22;7036;50.834;4.718;2023-01-19T08:19:33;16.20;48.10
13928;DHT22;7036;50.834;4.718;2023-01-19T08:22:01;16.20;48.20
13928;DHT22;7036;50.834;4.718;2023-01-19T08:24:29;16.20;48.30
13928;DHT22;7036;50.834;4.718;2023-01-19T08:26:58;16.20;48.30
13928;DHT22;7036;50.834;4.718;2023-01-19T08:29:25;16.30;48.30
13928;DHT22;7036;50.834;4.718;2023-01-19T08:31:53;16.30;48.30
13928;DHT22;7036;50.834;4.718;2023-01-19T08:34:21;16.40;48.50
13928;DHT22;7036;50.834;4.718;2023-01-19T08:36:49;16.40;48.40
13928;DHT22;7036;50.834;4.718;2023-01-19T08:39:16;16.40;48.40
13928;DHT22;7036;50.834;4.718;2023-01-19T08:41:44;16.50;48.40
13928;DHT22;7036;50.834;4.718;2023-01-19T08:44:11;16.50;48.10
13928;DHT22;7036;50.834;4.718;2023-01-19T08:46:39;16.50;48.30
13928;DHT22;7036;50.834;4.718;2023-01-19T08:49:07;16.60;48.50
13928;DHT22;7036;50.834;4.718;2023-01-19T08:51:35;16.60;48.40
13928;DHT22;7036;50.834;4.718;2023-01-19T08:54:03;16.60;48.40
13928;DHT22;7036;50.834;4.718;2023-01-19T08:56:31;16.60;48.40
13928;DHT22;7036;50.834;4.718;2023-01-19T08:58:59;16.70;48.40
13928;DHT22;7036;50.834;4.718;2023-01-19T09:01:27;16.70;48.40
13928;DHT22;7036;50.834;4.718;2023-01-19T09:03:54;16.70;48.30
13928;DHT22;7036;50.834;4.718;2023-01-19T09:06:22;16.70;48.50
13928;DHT22;7036;50.834;4.718;2023-01-19T09:08:50;16.80;48.50
13928;DHT22;7036;50.834;4.718;2023-01-19T09:11:18;16.80;48.40
13928;DHT22;7036;50.834;4.718;2023-01-19T09:13:47;16.80;48.50
13928;DHT22;7036;50.834;4.718;2023-01-19T09:16:14;16.80;48.50
13928;DHT22;7036;50.834;4.718;2023-01-19T09:18:41;16.90;48.50
13928;DHT22;7036;50.834;4.718;2023-01-19T09:21:09;17.00;48.80
13928;DHT22;7036;50.834;4.718;2023-01-19T09:23:37;17.00;48.60
13928;DHT22;7036;50.834;4.718;2023-01-19T09:26:05;17.10;48.80
13928;DHT22;7036;50.834;4.718;2023-01-19T09:28:32;17.20;48.80
13928;DHT22;7036;50.834;4.718;2023-01-19T09:31:03;17.20;48.70
13928;DHT22;7036;50.834;4.718;2023-01-19T09:33:28;17.30;48.80
13928;DHT22;7036;50.834;4.718;2023-01-19T09:35:56;17.30;48.70
13928;DHT22;7036;50.834;4.718;2023-01-19T09:38:24;17.30;48.60
13928;DHT22;7036;50.834;4.718;2023-01-19T09:40:52;17.30;48.70
13928;DHT22;7036;50.834;4.718;2023-01-19T09:46:09;17.30;48.40
13928;DHT22;7036;50.834;4.718;2023-01-19T09:48:44;17.30;48.40
13928;DHT22;7036;50.834;4.718;2023-01-19T09:56:17;17.40;48.40
13928;DHT22;7036;50.834;4.718;2023-01-19T09:58:44;17.30;48.50
13928;DHT22;7036;50.834;4.718;2023-01-19T10:03:41;17.30;48.30
13928;DHT22;7036;50.834;4.718;2023-01-19T10:06:09;17.30;48.30
13928;DHT22;7036;50.834;4.718;2023-01-19T10:08:58;17.30;48.50
13928;DHT22;7036;50.834;4.718;2023-01-19T10:13:55;17.30;48.50
13928;DHT22;7036;50.834;4.718;2023-01-19T10:16:28;17.30;48.50
13928;DHT22;7036;50.834;4.718;2023-01-19T10:18:52;17.30;48.40
13928;DHT22;7036;50.834;4.718;2023-01-19T10:21:22;17.30;48.40
13928;DHT22;7036;50.834;4.718;2023-01-19T10:23:51;17.30;48.40
13928;DHT22;7036;50.834;4.718;2023-01-19T10:26:20;17.30;48.40
13928;DHT22;7036;50.834;4.718;2023-01-19T10:28:46;17.30;48.40
13928;DHT22;7036;50.834;4.718;2023-01-19T10:31:12;17.30;48.50
13928;DHT22;7036;50.834;4.718;2023-01-19T10:33:40;17.20;48.30
13928;DHT22;7036;50.834;4.718;2023-01-19T10:36:16;17.20;48.30
13928;DHT22;7036;50.834;4.718;2023-01-19T10:38:41;17.20;48.20
13928;DHT22;7036;50.834;4.718;2023-01-19T10:41:20;17.20;48.20
13928;DHT22;7036;50.834;4.718;2023-01-19T10:43:46;17.10;48.00
13928;DHT22;7036;50.834;4.718;2023-01-19T10:46:19;17.20;48.10
13928;DHT22;7036;50.834;4.718;2023-01-19T10:48:46;17.10;48.10
13928;DHT22;7036;50.834;4.718;2023-01-19T10:51:12;17.10;48.30
13928;DHT22;7036;50.834;4.718;2023-01-19T10:53:51;17.00;48.10
13928;DHT22;7036;50.834;4.718;2023-01-19T10:56:21;17.00;48.10
13928;DHT22;7036;50.834;4.718;2023-01-19T10:58:42;17.00;48.20
13928;DHT22;7036;50.834;4.718;2023-01-19T11:01:20;17.00;48.30
13928;DHT22;7036;50.834;4.718;2023-01-19T11:03:40;16.90;48.10
13928;DHT22;7036;50.834;4.718;2023-01-19T11:08:37;16.90;48.20
13928;DHT22;7036;50.834;4.718;2023-01-19T11:11:05;16.90;48.30
13928;DHT22;7036;50.834;4.718;2023-01-19T11:13:36;16.90;48.40
13928;DHT22;7036;50.834;4.718;2023-01-19T11:16:26;16.90;48.40
13928;DHT22;7036;50.834;4.718;2023-01-19T11:18:53;16.90;48.40
13928;DHT22;7036;50.834;4.718;2023-01-19T11:21:21;16.80;48.20
13928;DHT22;7036;50.834;4.718;2023-01-19T11:23:56;16.90;48.30
13928;DHT22;7036;50.834;4.718;2023-01-19T11:29:27;16.90;48.30
13928;DHT22;7036;50.834;4.718;2023-01-19T11:31:34;16.90;48.30
13928;DHT22;7036;50.834;4.718;2023-01-19T11:34:04;16.90;48.30
13928;DHT22;7036;50.834;4.718;2023-01-19T11:36:30;16.80;48.10
13928;DHT22;7036;50.834;4.718;2023-01-19T11:38:57;16.90;48.20
13928;DHT22;7036;50.834;4.718;2023-01-19T11:41:33;16.90;48.30
13928;DHT22;7036;50.834;4.718;2023-01-19T11:44:04;16.90;48.30
13928;DHT22;7036;50.834;4.718;2023-01-19T11:46:27;16.90;48.20
13928;DHT22;7036;50.834;4.718;2023-01-19T11:48:54;16.90;48.10
13928;DHT22;7036;50.834;4.718;2023-01-19T11:51:23;16.90;48.20
13928;DHT22;7036;50.834;4.718;2023-01-19T11:53:50;16.90;48.30
13928;DHT22;7036;50.834;4.718;2023-01-19T11:56:19;16.90;48.40
13928;DHT22;7036;50.834;4.718;2023-01-19T11:58:45;16.80;48.20
13928;DHT22;7036;50.834;4.718;2023-01-19T12:01:32;16.80;48.40
13928;DHT22;7036;50.834;4.718;2023-01-19T12:04:11;16.80;48.20
13928;DHT22;7036;50.834;4.718;2023-01-19T12:06:34;16.80;48.30
13928;DHT22;7036;50.834;4.718;2023-01-19T12:09:46;16.80;48.40
13928;DHT22;7036;50.834;4.718;2023-01-19T12:11:40;16.80;48.40
13928;DHT22;7036;50.834;4.718;2023-01-19T12:14:03;16.80;48.40
13928;DHT22;7036;50.834;4.718;2023-01-19T12:16:31;16.80;48.60
13928;DHT22;7036;50.834;4.718;2023-01-19T12:19:01;16.80;48.50
13928;DHT22;7036;50.834;4.718;2023-01-19T12:21:26;16.80;48.60
13928;DHT22;7036;50.834;4.718;2023-01-19T12:24:06;16.80;48.70
13928;DHT22;7036;50.834;4.718;2023-01-19T12:26:55;16.80;48.60
13928;DHT22;7036;50.834;4.718;2023-01-19T12:29:23;16.80;48.70
13928;DHT22;7036;50.834;4.718;2023-01-19T12:34:46;16.70;48.60
13928;DHT22;7036;50.834;4.718;2023-01-19T12:37:32;16.70;48.70
13928;DHT22;7036;50.834;4.718;2023-01-19T12:40:42;16.70;48.80
13928;DHT22;7036;50.834;4.718;2023-01-19T12:42:25;16.70;49.20
13928;DHT22;7036;50.834;4.718;2023-01-19T12:45:12;16.70;49.00
13928;DHT22;7036;50.834;4.718;2023-01-19T12:47:35;16.80;49.10
13928;DHT22;7036;50.834;4.718;2023-01-19T12:50:12;16.70;48.90
13928;DHT22;7036;50.834;4.718;2023-01-19T12:52:41;16.80;48.80
13928;DHT22;7036;50.834;4.718;2023-01-19T12:55:15;16.80;49.00
13928;DHT22;7036;50.834;4.718;2023-01-19T12:57:48;16.80;49.00
13928;DHT22;7036;50.834;4.718;2023-01-19T13:03:00;16.80;49.30
13928;DHT22;7036;50.834;4.718;2023-01-19T13:10:53;16.80;49.70
13928;DHT22;7036;50.834;4.718;2023-01-19T13:13:25;16.80;49.80
13928;DHT22;7036;50.834;4.718;2023-01-19T13:15:50;16.80;50.10
13928;DHT22;7036;50.834;4.718;2023-01-19T13:18:29;16.80;50.00
13928;DHT22;7036;50.834;4.718;2023-01-19T13:21:04;16.80;50.00
13928;DHT22;7036;50.834;4.718;2023-01-19T13:26:13;16.80;49.80
13928;DHT22;7036;50.834;4.718;2023-01-19T13:28:42;16.80;50.10
13928;DHT22;7036;50.834;4.718;2023-01-19T13:31:09;16.80;50.00
13928;DHT22;7036;50.834;4.718;2023-01-19T13:33:45;16.80;49.80
13928;DHT22;7036;50.834;4.718;2023-01-19T13:38:48;16.80;49.80
13928;DHT22;7036;50.834;4.718;2023-01-19T13:41:15;16.80;49.90
13928;DHT22;7036;50.834;4.718;2023-01-19T13:43:42;16.80;49.90
13928;DHT22;7036;50.834;4.718;2023-01-19T13:46:10;16.80;50.60
13928;DHT22;7036;50.834;4.718;2023-01-19T13:48:36;16.80;49.90
13928;DHT22;7036;50.834;4.718;2023-01-19T13:51:04;16.80;50.00
13928;DHT22;7036;50.834;4.718;2023-01-19T13:53:31;16.80;49.80
13928;DHT22;7036;50.834;4.718;2023-01-19T13:56:18;16.80;49.90
13928;DHT22;7036;50.834;4.718;2023-01-19T13:58:55;16.80;49.80
13928;DHT22;7036;50.834;4.718;2023-01-19T14:01:20;16.80;50.00
13928;DHT22;7036;50.834;4.718;2023-01-19T14:03:47;16.80;49.80
13928;DHT22;7036;50.834;4.718;2023-01-19T14:06:20;16.70;50.00
13928;DHT22;7036;50.834;4.718;2023-01-19T14:08:43;16.70;50.10
13928;DHT22;7036;50.834;4.718;2023-01-19T14:11:13;16.70;49.90
13928;DHT22;7036;50.834;4.718;2023-01-19T14:13:42;16.70;49.90
13928;DHT22;7036;50.834;4.718;2023-01-19T14:16:13;16.70;49.90
13928;DHT22;7036;50.834;4.718;2023-01-19T14:18:35;16.70;49.90
13928;DHT22;7036;50.834;4.718;2023-01-19T14:21:06;16.70;49.70
13928;DHT22;7036;50.834;4.718;2023-01-19T14:23:47;16.70;49.70
13928;DHT22;7036;50.834;4.718;2023-01-19T14:28:59;16.60;49.70
13928;DHT22;7036;50.834;4.718;2023-01-19T14:31:26;16.60;49.70
13928;DHT22;7036;50.834;4.718;2023-01-19T14:33:54;16.60;49.80
13928;DHT22;7036;50.834;4.718;2023-01-19T14:36:55;16.60;49.70
13928;DHT22;7036;50.834;4.718;2023-01-19T14:38:56;16.60;49.60
13928;DHT22;7036;50.834;4.718;2023-01-19T14:41:32;16.50;49.60
13928;DHT22;7036;50.834;4.718;2023-01-19T14:43:53;16.50;49.70
13928;DHT22;7036;50.834;4.718;2023-01-19T14:46:22;16.50;49.70
13928;DHT22;7036;50.834;4.718;2023-01-19T14:48:49;16.50;49.60
13928;DHT22;7036;50.834;4.718;2023-01-19T14:51:17;16.50;49.80
13928;DHT22;7036;50.834;4.718;2023-01-19T14:53:48;16.50;49.70
13928;DHT22;7036;50.834;4.718;2023-01-19T14:56:13;16.50;49.70
13928;DHT22;7036;50.834;4.718;2023-01-19T14:58:40;16.50;49.70
13928;DHT22;7036;50.834;4.718;2023-01-19T15:01:07;16.40;49.70
13928;DHT22;7036;50.834;4.718;2023-01-19T15:03:35;16.40;49.80
13928;DHT22;7036;50.834;4.718;2023-01-19T15:06:04;16.40;49.80
13928;DHT22;7036;50.834;4.718;2023-01-19T15:08:31;16.40;49.70
13928;DHT22;7036;50.834;4.718;2023-01-19T15:11:05;16.40;49.70
13928;DHT22;7036;50.834;4.718;2023-01-19T15:13:25;16.30;49.70
13928;DHT22;7036;50.834;4.718;2023-01-19T15:15:52;16.40;49.70
13928;DHT22;7036;50.834;4.718;2023-01-19T15:18:21;16.40;49.80
13928;DHT22;7036;50.834;4.718;2023-01-19T15:20:47;16.40;49.80
13928;DHT22;7036;50.834;4.718;2023-01-19T15:23:14;16.30;49.70
13928;DHT22;7036;50.834;4.718;2023-01-19T15:25:43;16.30;49.80
13928;DHT22;7036;50.834;4.718;2023-01-19T15:28:13;16.30;49.60
13928;DHT22;7036;50.834;4.718;2023-01-19T15:30:37;16.30;49.60
13928;DHT22;7036;50.834;4.718;2023-01-19T15:33:04;16.30;49.70
13928;DHT22;7036;50.834;4.718;2023-01-19T15:35:32;16.30;49.70
13928;DHT22;7036;50.834;4.718;2023-01-19T15:38:00;16.30;49.60
13928;DHT22;7036;50.834;4.718;2023-01-19T15:40:27;16.30;49.60
13928;DHT22;7036;50.834;4.718;2023-01-19T15:42:54;16.30;49.60
13928;DHT22;7036;50.834;4.718;2023-01-19T15:45:38;16.30;49.80
13928;DHT22;7036;50.834;4.718;2023-01-19T15:48:05;16.30;49.60
13928;DHT22;7036;50.834;4.718;2023-01-19T15:50:32;16.30;49.80
13928;DHT22;7036;50.834;4.718;2023-01-19T15:52:59;16.30;49.70
13928;DHT22;7036;50.834;4.718;2023-01-19T15:55:27;16.30;49.60
13928;DHT22;7036;50.834;4.718;2023-01-19T15:57:54;16.40;49.60
13928;DHT22;7036;50.834;4.718;2023-01-19T16:00:21;16.40;49.60
13928;DHT22;7036;50.834;4.718;2023-01-19T16:02:48;16.30;49.50
13928;DHT22;7036;50.834;4.718;2023-01-19T16:05:15;16.30;49.70
13928;DHT22;7036;50.834;4.718;2023-01-19T16:07:42;16.30;49.60
13928;DHT22;7036;50.834;4.718;2023-01-19T16:10:10;16.30;49.60
13928;DHT22;7036;50.834;4.718;2023-01-19T16:12:38;16.30;49.90
13928;DHT22;7036;50.834;4.718;2023-01-19T16:15:05;16.30;49.80
13928;DHT22;7036;50.834;4.718;2023-01-19T16:17:32;16.30;49.80
13928;DHT22;7036;50.834;4.718;2023-01-19T16:20:01;16.30;49.90
13928;DHT22;7036;50.834;4.718;2023-01-19T16:22:28;16.30;49.90
13928;DHT22;7036;50.834;4.718;2023-01-19T16:24:56;16.30;50.00
13928;DHT22;7036;50.834;4.718;2023-01-19T16:27:26;16.30;49.90
13928;DHT22;7036;50.834;4.718;2023-01-19T16:29:52;16.30;49.80
13928;DHT22;7036;50.834;4.718;2023-01-19T16:32:20;16.30;50.10
13928;DHT22;7036;50.834;4.718;2023-01-19T16:34:47;16.30;50.00
13928;DHT22;7036;50.834;4.718;2023-01-19T16:37:14;16.30;50.00